メインページ
METAR-TAF:

METAR-TAF

空港 :

メアリー, トルクメニスタン

緯度: 37-36-24N, 経度: 061-54-05E, 海抜: 222m

現時点の気象観測

当レポートは16分前の20:00(UTC)に作成
東/南東の風 8kt
気温 7°C
湿度 93%
気圧 1022 hPa
視程: 6000m

METAR: UTAM 112000Z 11008KT 6000 NSC 07/06 Q1022 TEMPO 0800 FG VV003

時間: 01:16 (20:16 UTC)

予報

当レポートは3時間46分前の16:30(UTC)に作成
予報は11日の 18時(UTC)から 12日の 18時(UTC)まで有効
の風 12kt
視程: 1500m
高度700ftの千切れ雲あり
11日の 18時(UTC)から 11日の 21時(UTC)まで一時的に
東/南東の風 10kt
視程: 0800m
高度300ftの
11日の 21時(UTC)から 11日の 23時(UTC)まで徐々に
の風 10kt
視程: 0800m
高度300ftの曇り
11日の 23時(UTC)から 12日の 05時(UTC)まで一時的に
東/南東の風 10kt
視程: 0300m
高度100ftの
霧, 小霧雨
12日の 05時(UTC)から 12日の 06時(UTC)まで徐々に
東/南東の風 14kt
視程: 1500m
高度600ftの千切れ雲あり
12日の 07時(UTC)から 12日の 08時(UTC)まで徐々に
視程10km以上
1,500メートル以下は雲なし、積乱雲なし

TAF: UTAM 111630Z 1118/1218 09012KT 1500 BR BKN007 530002 TEMPO 1118/1121 11010KT 0800 FG VV003 BECMG 1121/1123 10010KT 0800 FG OVC003 TEMPO 1123/1205 12010KT 0300 FG -DZ VV001 BECMG 1205/1206 11014KT 1500 BR BKN006 BECMG 1207/1208 CAVOK

4,000以上の空港の気象観測と天気予報(METAR報とTAF報)

利用可能な観測所は地図上に黄色い丸と赤い丸で示す。

丸の上にカーソルを重ねると観測所名を参照できる。

次にクリックすると気象観測と天気予報を参照できる。

マップの切り替え:黒色「×」印の緑ボタンをクリックして拡大、「-」印の緑ボタンをクリックして縮小、緑色の三角印をクリックして隣りの地図に切り替え


METAR-TAF: